Portada
METAR-TAF:

METAR-TAF

Aeroports :

Masjed-Soleyman, Iran

latitud: 31-59N, longitud: 049-16E, altitud: 372 m

Observació

L'informe es va fer fa 2 hores i 2 minuts, a les 14:00 UTC
Vent 6 kt del Oest
Temperatura 47°C
Humitat 3%
Pressió 1003 hPa
Visibilitat 10 km o més
sense núvols per sota de 1500 mi sense presència de cumulonimbus.

METAR: OIAI 251400Z 26006KT CAVOK 47/M10 Q1003

Hora: 20:32 (16:02 UTC)


TAF: manca

Observacions i pronòstics meteorològics de més de 4000 aeroports (METAR i TAF).

Les estacions disponibles són els punts grocs i vermells al mapa.

Posi el ratolí al punt desitjat per veure el nom de l'estació.

Feu clic per veure les observacions i els pronòstics meteorològics.

Per canviar el mapa: feu clic els botons verds amb una creu de color negre per apropar; al botó verd amb un guió per allunyar la imatge; o en les fletxes verdes per a mapes adjacents.


METAR-TAF: